sensor_id;sensor_type;location;lat;lon;timestamp;pressure;altitude;pressure_sealevel;temperature;humidity
83492;BME280;73661;56.120;12.302;2024-01-30T00:01:50;102560.63;;;9.71;53.45
83492;BME280;73661;56.120;12.302;2024-01-30T00:04:16;102563.97;;;9.68;53.70
83492;BME280;73661;56.120;12.302;2024-01-30T00:06:43;102564.84;;;9.46;54.11
83492;BME280;73661;56.120;12.302;2024-01-30T00:09:09;102560.63;;;9.71;53.24
83492;BME280;73661;56.120;12.302;2024-01-30T00:11:39;102563.75;;;9.41;54.14
83492;BME280;73661;56.120;12.302;2024-01-30T00:14:05;102561.78;;;9.15;55.46
83492;BME280;73661;56.120;12.302;2024-01-30T00:16:31;102568.72;;;9.14;55.73
83492;BME280;73661;56.120;12.302;2024-01-30T00:18:57;102562.06;;;8.81;56.74
83492;BME280;73661;56.120;12.302;2024-01-30T00:21:23;102548.56;;;8.89;57.30
83492;BME280;73661;56.120;12.302;2024-01-30T00:23:49;102546.38;;;9.19;56.74
83492;BME280;73661;56.120;12.302;2024-01-30T00:26:15;102549.91;;;9.00;57.40
83492;BME280;73661;56.120;12.302;2024-01-30T00:28:41;102550.78;;;9.22;57.01
83492;BME280;73661;56.120;12.302;2024-01-30T00:31:07;102558.88;;;8.67;58.42
83492;BME280;73661;56.120;12.302;2024-01-30T00:33:34;102551.78;;;9.03;57.61
83492;BME280;73661;56.120;12.302;2024-01-30T00:36:00;102567.03;;;8.95;58.29
83492;BME280;73661;56.120;12.302;2024-01-30T00:38:25;102567.41;;;8.63;59.16
83492;BME280;73661;56.120;12.302;2024-01-30T00:40:51;102563.13;;;8.65;59.09
83492;BME280;73661;56.120;12.302;2024-01-30T00:43:17;102553.66;;;8.67;59.49
83492;BME280;73661;56.120;12.302;2024-01-30T00:45:45;102550.03;;;8.83;58.96
83492;BME280;73661;56.120;12.302;2024-01-30T00:48:11;102543.19;;;9.06;58.73
83492;BME280;73661;56.120;12.302;2024-01-30T00:50:37;102547.75;;;8.90;59.19
83492;BME280;73661;56.120;12.302;2024-01-30T00:53:03;102556.91;;;9.01;58.75
83492;BME280;73661;56.120;12.302;2024-01-30T00:55:29;102549.53;;;9.33;58.04
83492;BME280;73661;56.120;12.302;2024-01-30T00:57:54;102559.38;;;8.98;58.43
83492;BME280;73661;56.120;12.302;2024-01-30T01:00:20;102552.19;;;9.14;58.59
83492;BME280;73661;56.120;12.302;2024-01-30T01:02:46;102548.69;;;9.34;58.38
83492;BME280;73661;56.120;12.302;2024-01-30T01:05:12;102557.56;;;9.17;58.45
83492;BME280;73661;56.120;12.302;2024-01-30T01:07:38;102566.41;;;8.80;60.11
83492;BME280;73661;56.120;12.302;2024-01-30T01:10:06;102568.47;;;9.08;59.53
83492;BME280;73661;56.120;12.302;2024-01-30T01:12:31;102567.34;;;8.82;60.23
83492;BME280;73661;56.120;12.302;2024-01-30T01:14:57;102559.78;;;8.67;60.79
83492;BME280;73661;56.120;12.302;2024-01-30T01:17:23;102578.06;;;8.69;60.80
83492;BME280;73661;56.120;12.302;2024-01-30T01:19:48;102562.97;;;8.81;60.60
83492;BME280;73661;56.120;12.302;2024-01-30T01:22:15;102582.38;;;8.68;61.43
83492;BME280;73661;56.120;12.302;2024-01-30T01:24:42;102563.75;;;8.79;61.03
83492;BME280;73661;56.120;12.302;2024-01-30T01:27:08;102579.50;;;8.62;61.52
83492;BME280;73661;56.120;12.302;2024-01-30T01:29:34;102572.38;;;8.78;60.89
83492;BME280;73661;56.120;12.302;2024-01-30T01:31:59;102572.44;;;8.60;61.99
83492;BME280;73661;56.120;12.302;2024-01-30T01:34:25;102580.03;;;9.15;60.72
83492;BME280;73661;56.120;12.302;2024-01-30T01:36:51;102578.19;;;8.91;61.03
83492;BME280;73661;56.120;12.302;2024-01-30T01:39:17;102581.91;;;8.77;61.52
83492;BME280;73661;56.120;12.302;2024-01-30T01:41:43;102580.31;;;8.81;61.81
83492;BME280;73661;56.120;12.302;2024-01-30T01:44:09;102574.59;;;8.89;61.41
83492;BME280;73661;56.120;12.302;2024-01-30T01:46:36;102577.88;;;9.05;61.08
83492;BME280;73661;56.120;12.302;2024-01-30T01:49:03;102577.25;;;9.10;61.15
83492;BME280;73661;56.120;12.302;2024-01-30T01:51:31;102584.19;;;9.31;60.63
83492;BME280;73661;56.120;12.302;2024-01-30T01:54:04;102589.53;;;8.93;60.88
83492;BME280;73661;56.120;12.302;2024-01-30T01:56:31;102574.28;;;9.02;61.14
83492;BME280;73661;56.120;12.302;2024-01-30T01:59:04;102590.44;;;9.15;61.08
83492;BME280;73661;56.120;12.302;2024-01-30T02:01:31;102589.19;;;9.26;60.88
83492;BME280;73661;56.120;12.302;2024-01-30T02:03:58;102592.19;;;8.95;61.78
83492;BME280;73661;56.120;12.302;2024-01-30T02:06:24;102587.41;;;9.25;60.96
83492;BME280;73661;56.120;12.302;2024-01-30T02:08:50;102583.34;;;9.32;60.77
83492;BME280;73661;56.120;12.302;2024-01-30T02:11:16;102570.31;;;9.52;60.65
83492;BME280;73661;56.120;12.302;2024-01-30T02:13:42;102577.03;;;9.47;59.99
83492;BME280;73661;56.120;12.302;2024-01-30T02:16:08;102574.91;;;9.37;60.49
83492;BME280;73661;56.120;12.302;2024-01-30T02:18:33;102570.53;;;9.36;60.72
83492;BME280;73661;56.120;12.302;2024-01-30T02:21:04;102585.97;;;9.11;61.47
83492;BME280;73661;56.120;12.302;2024-01-30T02:23:30;102581.50;;;9.29;60.85
83492;BME280;73661;56.120;12.302;2024-01-30T02:25:58;102574.63;;;9.52;60.70
83492;BME280;73661;56.120;12.302;2024-01-30T02:28:24;102577.09;;;9.07;61.24
83492;BME280;73661;56.120;12.302;2024-01-30T02:30:49;102582.63;;;9.15;61.02
83492;BME280;73661;56.120;12.302;2024-01-30T02:33:15;102568.84;;;9.59;60.42
83492;BME280;73661;56.120;12.302;2024-01-30T02:35:41;102570.19;;;9.08;61.87
83492;BME280;73661;56.120;12.302;2024-01-30T02:38:07;102567.28;;;8.81;62.88
83492;BME280;73661;56.120;12.302;2024-01-30T02:40:32;102576.09;;;9.04;62.35
83492;BME280;73661;56.120;12.302;2024-01-30T02:42:59;102566.56;;;9.25;61.80
83492;BME280;73661;56.120;12.302;2024-01-30T02:45:25;102565.69;;;9.24;61.49
83492;BME280;73661;56.120;12.302;2024-01-30T02:47:51;102571.53;;;9.19;62.06
83492;BME280;73661;56.120;12.302;2024-01-30T02:50:17;102560.22;;;9.39;61.42
83492;BME280;73661;56.120;12.302;2024-01-30T02:52:43;102559.56;;;9.45;61.26
83492;BME280;73661;56.120;12.302;2024-01-30T02:55:12;102565.16;;;9.33;61.50
83492;BME280;73661;56.120;12.302;2024-01-30T02:57:38;102552.78;;;9.07;62.36
83492;BME280;73661;56.120;12.302;2024-01-30T03:00:05;102557.56;;;9.17;62.15
83492;BME280;73661;56.120;12.302;2024-01-30T03:02:32;102551.19;;;9.31;61.75
83492;BME280;73661;56.120;12.302;2024-01-30T03:04:59;102550.31;;;9.10;62.07
83492;BME280;73661;56.120;12.302;2024-01-30T03:07:25;102554.13;;;9.18;61.97
83492;BME280;73661;56.120;12.302;2024-01-30T03:09:51;102548.97;;;9.19;62.21
83492;BME280;73661;56.120;12.302;2024-01-30T03:12:17;102562.94;;;9.21;62.17
83492;BME280;73661;56.120;12.302;2024-01-30T03:14:42;102554.09;;;9.39;61.67
83492;BME280;73661;56.120;12.302;2024-01-30T03:17:08;102555.25;;;9.24;62.02
83492;BME280;73661;56.120;12.302;2024-01-30T03:19:34;102559.56;;;9.45;61.56
83492;BME280;73661;56.120;12.302;2024-01-30T03:21:59;102553.97;;;9.57;61.29
83492;BME280;73661;56.120;12.302;2024-01-30T03:24:25;102548.84;;;9.37;61.82
83492;BME280;73661;56.120;12.302;2024-01-30T03:26:51;102544.53;;;9.60;61.27
83492;BME280;73661;56.120;12.302;2024-01-30T03:29:17;102541.66;;;9.32;61.78
83492;BME280;73661;56.120;12.302;2024-01-30T03:31:43;102532.47;;;9.41;61.65
83492;BME280;73661;56.120;12.302;2024-01-30T03:34:08;102530.84;;;8.03;65.99
83492;BME280;73661;56.120;12.302;2024-01-30T03:36:34;102539.69;;;8.26;66.50
83492;BME280;73661;56.120;12.302;2024-01-30T03:39:01;102546.41;;;9.00;64.05
83492;BME280;73661;56.120;12.302;2024-01-30T03:41:27;102547.88;;;9.14;63.35
83492;BME280;73661;56.120;12.302;2024-01-30T03:43:52;102569.88;;;9.21;62.88
83492;BME280;73661;56.120;12.302;2024-01-30T03:46:18;102557.50;;;9.36;62.57
83492;BME280;73661;56.120;12.302;2024-01-30T03:48:45;102549.69;;;8.75;64.29
83492;BME280;73661;56.120;12.302;2024-01-30T03:51:10;102552.91;;;9.10;63.75
83492;BME280;73661;56.120;12.302;2024-01-30T03:53:40;102548.13;;;9.20;63.39
83492;BME280;73661;56.120;12.302;2024-01-30T03:56:07;102537.38;;;7.76;68.01
83492;BME280;73661;56.120;12.302;2024-01-30T03:58:33;102547.94;;;8.55;65.99
83492;BME280;73661;56.120;12.302;2024-01-30T04:00:59;102537.25;;;8.89;65.04
83492;BME280;73661;56.120;12.302;2024-01-30T04:03:25;102528.97;;;8.97;64.44
83492;BME280;73661;56.120;12.302;2024-01-30T04:05:53;102525.56;;;7.82;68.32
83492;BME280;73661;56.120;12.302;2024-01-30T04:08:19;102519.81;;;7.89;68.88
83492;BME280;73661;56.120;12.302;2024-01-30T04:10:46;102521.22;;;8.39;67.10
83492;BME280;73661;56.120;12.302;2024-01-30T04:13:12;102522.63;;;8.71;66.22
83492;BME280;73661;56.120;12.302;2024-01-30T04:15:38;102522.78;;;8.95;65.62
83492;BME280;73661;56.120;12.302;2024-01-30T04:18:04;102522.09;;;8.99;64.80
83492;BME280;73661;56.120;12.302;2024-01-30T04:20:29;102521.09;;;9.17;64.75
83492;BME280;73661;56.120;12.302;2024-01-30T04:22:55;102531.25;;;9.11;64.85
83492;BME280;73661;56.120;12.302;2024-01-30T04:25:21;102533.13;;;9.15;64.32
83492;BME280;73661;56.120;12.302;2024-01-30T04:27:48;102525.13;;;9.31;63.88
83492;BME280;73661;56.120;12.302;2024-01-30T04:30:13;102539.50;;;9.00;64.16
83492;BME280;73661;56.120;12.302;2024-01-30T04:32:39;102528.69;;;9.33;63.47
83492;BME280;73661;56.120;12.302;2024-01-30T04:35:05;102526.97;;;9.34;63.32
83492;BME280;73661;56.120;12.302;2024-01-30T04:37:31;102522.59;;;9.33;63.69
83492;BME280;73661;56.120;12.302;2024-01-30T04:39:57;102524.34;;;9.34;63.89
83492;BME280;73661;56.120;12.302;2024-01-30T04:42:23;102528.16;;;9.42;63.28
83492;BME280;73661;56.120;12.302;2024-01-30T04:44:50;102528.44;;;9.27;63.71
83492;BME280;73661;56.120;12.302;2024-01-30T04:47:15;102525.50;;;9.40;63.14
83492;BME280;73661;56.120;12.302;2024-01-30T04:49:41;102522.88;;;9.40;63.46
83492;BME280;73661;56.120;12.302;2024-01-30T04:52:08;102525.63;;;9.43;63.53
83492;BME280;73661;56.120;12.302;2024-01-30T04:54:34;102515.84;;;9.38;63.60
83492;BME280;73661;56.120;12.302;2024-01-30T04:57:01;102516.16;;;8.42;66.19
83492;BME280;73661;56.120;12.302;2024-01-30T04:59:27;102512.22;;;7.94;68.12
83492;BME280;73661;56.120;12.302;2024-01-30T05:01:53;102518.28;;;8.51;66.99
83492;BME280;73661;56.120;12.302;2024-01-30T05:04:18;102521.06;;;8.96;65.68
83492;BME280;73661;56.120;12.302;2024-01-30T05:06:44;102512.75;;;9.05;65.63
83492;BME280;73661;56.120;12.302;2024-01-30T05:09:10;102519.69;;;9.25;64.66
83492;BME280;73661;56.120;12.302;2024-01-30T05:11:38;102521.69;;;9.32;64.22
83492;BME280;73661;56.120;12.302;2024-01-30T05:14:04;102518.81;;;9.04;65.05
83492;BME280;73661;56.120;12.302;2024-01-30T05:16:31;102510.00;;;9.01;65.13
83492;BME280;73661;56.120;12.302;2024-01-30T05:18:57;102504.56;;;9.16;64.62
83492;BME280;73661;56.120;12.302;2024-01-30T05:21:22;102511.78;;;9.02;64.42
83492;BME280;73661;56.120;12.302;2024-01-30T05:23:48;102511.41;;;8.72;65.43
83492;BME280;73661;56.120;12.302;2024-01-30T05:26:14;102506.91;;;9.31;64.43
83492;BME280;73661;56.120;12.302;2024-01-30T05:28:40;102510.34;;;9.30;64.26
83492;BME280;73661;56.120;12.302;2024-01-30T05:31:05;102511.88;;;9.47;63.37
83492;BME280;73661;56.120;12.302;2024-01-30T05:33:31;102505.06;;;9.08;64.44
83492;BME280;73661;56.120;12.302;2024-01-30T05:35:57;102499.00;;;8.67;65.98
83492;BME280;73661;56.120;12.302;2024-01-30T05:38:22;102491.91;;;8.24;67.99
83492;BME280;73661;56.120;12.302;2024-01-30T05:40:48;102504.31;;;8.30;69.20
83492;BME280;73661;56.120;12.302;2024-01-30T05:43:14;102501.38;;;9.02;65.94
83492;BME280;73661;56.120;12.302;2024-01-30T05:45:40;102505.19;;;9.11;66.03
83492;BME280;73661;56.120;12.302;2024-01-30T05:48:06;102496.47;;;9.53;64.40
83492;BME280;73661;56.120;12.302;2024-01-30T05:50:32;102491.50;;;8.54;66.68
83492;BME280;73661;56.120;12.302;2024-01-30T05:52:58;102491.91;;;7.30;70.86
83492;BME280;73661;56.120;12.302;2024-01-30T05:55:23;102499.00;;;8.09;70.01
83492;BME280;73661;56.120;12.302;2024-01-30T05:57:49;102492.91;;;7.70;70.57
83492;BME280;73661;56.120;12.302;2024-01-30T06:00:16;102492.09;;;7.71;70.41
83492;BME280;73661;56.120;12.302;2024-01-30T06:02:42;102479.50;;;7.07;71.89
83492;BME280;73661;56.120;12.302;2024-01-30T06:05:08;102475.19;;;6.90;73.53
83492;BME280;73661;56.120;12.302;2024-01-30T06:07:34;102477.22;;;7.31;72.03
83492;BME280;73661;56.120;12.302;2024-01-30T06:09:59;102480.34;;;7.24;72.38
83492;BME280;73661;56.120;12.302;2024-01-30T06:12:29;102489.22;;;7.47;71.41
83492;BME280;73661;56.120;12.302;2024-01-30T06:14:55;102480.88;;;7.91;69.93
83492;BME280;73661;56.120;12.302;2024-01-30T06:17:23;102486.00;;;7.52;71.22
83492;BME280;73661;56.120;12.302;2024-01-30T06:19:49;102489.91;;;8.36;68.37
83492;BME280;73661;56.120;12.302;2024-01-30T06:22:16;102499.84;;;8.66;67.34
83492;BME280;73661;56.120;12.302;2024-01-30T06:24:41;102495.28;;;8.81;66.39
83492;BME280;73661;56.120;12.302;2024-01-30T06:27:07;102509.44;;;9.09;66.07
83492;BME280;73661;56.120;12.302;2024-01-30T06:29:33;102496.03;;;8.79;66.08
83492;BME280;73661;56.120;12.302;2024-01-30T06:31:59;102502.41;;;7.88;69.47
83492;BME280;73661;56.120;12.302;2024-01-30T06:34:25;102494.31;;;8.58;67.34
83492;BME280;73661;56.120;12.302;2024-01-30T06:36:52;102494.28;;;7.81;69.44
83492;BME280;73661;56.120;12.302;2024-01-30T06:39:17;102499.72;;;8.63;67.40
83492;BME280;73661;56.120;12.302;2024-01-30T06:41:43;102493.88;;;8.89;66.17
83492;BME280;73661;56.120;12.302;2024-01-30T06:44:12;102498.31;;;9.13;65.62
83492;BME280;73661;56.120;12.302;2024-01-30T06:46:38;102498.25;;;7.55;70.45
83492;BME280;73661;56.120;12.302;2024-01-30T06:49:04;102495.47;;;8.26;68.79
83492;BME280;73661;56.120;12.302;2024-01-30T06:51:31;102492.19;;;8.11;70.38
83492;BME280;73661;56.120;12.302;2024-01-30T06:53:56;102483.56;;;7.02;73.43
83492;BME280;73661;56.120;12.302;2024-01-30T06:56:22;102486.19;;;6.17;76.92
83492;BME280;73661;56.120;12.302;2024-01-30T06:58:48;102485.34;;;6.51;76.28
83492;BME280;73661;56.120;12.302;2024-01-30T07:01:15;102474.66;;;6.45;76.83
83492;BME280;73661;56.120;12.302;2024-01-30T07:03:41;102477.09;;;6.25;76.41
83492;BME280;73661;56.120;12.302;2024-01-30T07:06:08;102472.91;;;7.14;75.32
83492;BME280;73661;56.120;12.302;2024-01-30T07:08:34;102480.22;;;6.52;76.28
83492;BME280;73661;56.120;12.302;2024-01-30T07:11:00;102477.81;;;7.25;73.96
83492;BME280;73661;56.120;12.302;2024-01-30T07:13:25;102480.88;;;7.54;71.99
83492;BME280;73661;56.120;12.302;2024-01-30T07:15:51;102481.44;;;6.59;75.34
83492;BME280;73661;56.120;12.302;2024-01-30T07:18:17;102479.03;;;7.69;71.75
83492;BME280;73661;56.120;12.302;2024-01-30T07:20:42;102478.63;;;7.99;70.91
83492;BME280;73661;56.120;12.302;2024-01-30T07:23:12;102470.75;;;7.23;72.64
83492;BME280;73661;56.120;12.302;2024-01-30T07:25:40;102480.88;;;6.48;74.95
83492;BME280;73661;56.120;12.302;2024-01-30T07:28:07;102480.59;;;6.76;74.20
83492;BME280;73661;56.120;12.302;2024-01-30T07:30:35;102481.28;;;6.56;75.76
83492;BME280;73661;56.120;12.302;2024-01-30T07:33:01;102470.13;;;6.08;77.70
83492;BME280;73661;56.120;12.302;2024-01-30T07:35:27;102479.53;;;6.73;76.20
83492;BME280;73661;56.120;12.302;2024-01-30T07:37:52;102477.56;;;6.51;76.23
83492;BME280;73661;56.120;12.302;2024-01-30T07:40:18;102471.44;;;6.16;77.37
83492;BME280;73661;56.120;12.302;2024-01-30T07:42:44;102470.47;;;6.31;76.82
83492;BME280;73661;56.120;12.302;2024-01-30T07:45:10;102460.50;;;6.06;77.40
83492;BME280;73661;56.120;12.302;2024-01-30T07:47:36;102461.16;;;6.18;76.86
83492;BME280;73661;56.120;12.302;2024-01-30T07:50:01;102465.28;;;6.14;77.68
83492;BME280;73661;56.120;12.302;2024-01-30T07:52:28;102453.00;;;6.78;75.86
83492;BME280;73661;56.120;12.302;2024-01-30T07:54:54;102462.19;;;6.21;77.53
83492;BME280;73661;56.120;12.302;2024-01-30T07:57:20;102458.25;;;6.62;77.11
83492;BME280;73661;56.120;12.302;2024-01-30T07:59:46;102447.41;;;7.42;73.71
83492;BME280;73661;56.120;12.302;2024-01-30T08:02:12;102458.72;;;6.05;77.79
83492;BME280;73661;56.120;12.302;2024-01-30T08:04:39;102457.28;;;6.60;76.52
83492;BME280;73661;56.120;12.302;2024-01-30T08:07:05;102458.44;;;6.49;76.41
83492;BME280;73661;56.120;12.302;2024-01-30T08:09:30;102452.03;;;6.94;75.08
83492;BME280;73661;56.120;12.302;2024-01-30T08:11:56;102446.47;;;6.69;76.37
83492;BME280;73661;56.120;12.302;2024-01-30T08:14:22;102452.00;;;6.24;77.44
83492;BME280;73661;56.120;12.302;2024-01-30T08:16:48;102446.88;;;6.60;76.16
83492;BME280;73661;56.120;12.302;2024-01-30T08:19:15;102431.31;;;6.60;76.56
83492;BME280;73661;56.120;12.302;2024-01-30T08:21:40;102434.44;;;6.53;78.10
83492;BME280;73661;56.120;12.302;2024-01-30T08:24:07;102438.72;;;6.18;78.23
83492;BME280;73661;56.120;12.302;2024-01-30T08:26:33;102433.16;;;6.28;78.03
83492;BME280;73661;56.120;12.302;2024-01-30T08:28:59;102423.78;;;6.65;77.31
83492;BME280;73661;56.120;12.302;2024-01-30T08:31:26;102433.66;;;6.38;77.72
83492;BME280;73661;56.120;12.302;2024-01-30T08:33:52;102428.72;;;6.42;78.45
83492;BME280;73661;56.120;12.302;2024-01-30T08:36:18;102426.03;;;6.41;78.50
83492;BME280;73661;56.120;12.302;2024-01-30T08:38:44;102418.44;;;6.79;76.27
83492;BME280;73661;56.120;12.302;2024-01-30T08:41:10;102417.69;;;6.82;76.43
83492;BME280;73661;56.120;12.302;2024-01-30T08:43:36;102415.88;;;6.11;79.58
83492;BME280;73661;56.120;12.302;2024-01-30T08:46:02;102417.97;;;6.18;79.33
83492;BME280;73661;56.120;12.302;2024-01-30T08:48:29;102411.34;;;6.75;77.90
83492;BME280;73661;56.120;12.302;2024-01-30T08:50:54;102416.00;;;6.65;77.05
83492;BME280;73661;56.120;12.302;2024-01-30T08:53:20;102412.09;;;7.28;76.20
83492;BME280;73661;56.120;12.302;2024-01-30T08:55:46;102411.03;;;7.79;74.75
83492;BME280;73661;56.120;12.302;2024-01-30T08:58:12;102409.19;;;7.40;75.01
83492;BME280;73661;56.120;12.302;2024-01-30T09:00:38;102405.84;;;6.69;77.41
83492;BME280;73661;56.120;12.302;2024-01-30T09:03:04;102409.09;;;7.01;76.09
83492;BME280;73661;56.120;12.302;2024-01-30T09:05:29;102409.44;;;7.63;75.23
83492;BME280;73661;56.120;12.302;2024-01-30T09:07:55;102407.03;;;7.12;75.83
83492;BME280;73661;56.120;12.302;2024-01-30T09:10:21;102406.63;;;7.22;75.57
83492;BME280;73661;56.120;12.302;2024-01-30T09:12:47;102403.31;;;6.89;77.51
83492;BME280;73661;56.120;12.302;2024-01-30T09:15:13;102407.75;;;6.73;78.13
83492;BME280;73661;56.120;12.302;2024-01-30T09:17:39;102404.06;;;7.04;77.13
83492;BME280;73661;56.120;12.302;2024-01-30T09:20:05;102408.88;;;6.78;77.66
83492;BME280;73661;56.120;12.302;2024-01-30T09:22:31;102395.47;;;7.05;77.35
83492;BME280;73661;56.120;12.302;2024-01-30T09:24:57;102390.59;;;6.75;78.00
83492;BME280;73661;56.120;12.302;2024-01-30T09:27:23;102390.88;;;6.64;78.10
83492;BME280;73661;56.120;12.302;2024-01-30T09:29:49;102398.41;;;6.95;77.63
83492;BME280;73661;56.120;12.302;2024-01-30T09:32:15;102390.59;;;6.75;77.68
83492;BME280;73661;56.120;12.302;2024-01-30T09:34:41;102389.84;;;6.96;78.02
83492;BME280;73661;56.120;12.302;2024-01-30T09:37:07;102397.03;;;6.83;78.81
83492;BME280;73661;56.120;12.302;2024-01-30T09:39:33;102390.81;;;6.62;79.14
83492;BME280;73661;56.120;12.302;2024-01-30T09:44:43;102390.47;;;7.47;76.11
83492;BME280;73661;56.120;12.302;2024-01-30T09:47:10;102388.13;;;7.33;77.60
83492;BME280;73661;56.120;12.302;2024-01-30T09:49:36;102383.19;;;7.77;75.27
83492;BME280;73661;56.120;12.302;2024-01-30T09:52:05;102372.97;;;8.62;72.95
83492;BME280;73661;56.120;12.302;2024-01-30T09:54:31;102374.84;;;8.87;71.91
83492;BME280;73661;56.120;12.302;2024-01-30T09:56:58;102378.94;;;8.59;72.67
83492;BME280;73661;56.120;12.302;2024-01-30T09:59:24;102379.72;;;8.57;72.76
83492;BME280;73661;56.120;12.302;2024-01-30T10:01:50;102373.13;;;8.65;72.28
83492;BME280;73661;56.120;12.302;2024-01-30T10:04:19;102372.97;;;8.41;73.38
83492;BME280;73661;56.120;12.302;2024-01-30T10:06:46;102384.41;;;8.65;73.16
83492;BME280;73661;56.120;12.302;2024-01-30T10:09:13;102386.44;;;8.52;73.28
83492;BME280;73661;56.120;12.302;2024-01-30T10:11:39;102389.38;;;8.19;74.13
83492;BME280;73661;56.120;12.302;2024-01-30T10:14:04;102384.41;;;8.44;73.50
83492;BME280;73661;56.120;12.302;2024-01-30T10:16:30;102390.63;;;8.69;72.75
83492;BME280;73661;56.120;12.302;2024-01-30T10:18:56;102382.59;;;7.82;75.75
83492;BME280;73661;56.120;12.302;2024-01-30T10:21:22;102376.25;;;7.38;76.77
83492;BME280;73661;56.120;12.302;2024-01-30T10:23:47;102368.84;;;7.28;77.90
83492;BME280;73661;56.120;12.302;2024-01-30T10:26:16;102365.16;;;7.23;78.65
83492;BME280;73661;56.120;12.302;2024-01-30T10:28:42;102353.09;;;7.43;77.70
83492;BME280;73661;56.120;12.302;2024-01-30T10:31:08;102351.03;;;6.99;79.85
83492;BME280;73661;56.120;12.302;2024-01-30T10:33:34;102337.38;;;7.03;79.55
83492;BME280;73661;56.120;12.302;2024-01-30T10:36:02;102343.38;;;7.39;78.67
83492;BME280;73661;56.120;12.302;2024-01-30T10:38:30;102349.59;;;7.62;77.92
83492;BME280;73661;56.120;12.302;2024-01-30T10:41:00;102344.22;;;7.20;78.41
83492;BME280;73661;56.120;12.302;2024-01-30T10:43:35;102348.56;;;7.02;80.22
83492;BME280;73661;56.120;12.302;2024-01-30T10:46:14;102338.19;;;7.02;79.03
83492;BME280;73661;56.120;12.302;2024-01-30T10:48:44;102329.53;;;7.21;79.12
83492;BME280;73661;56.120;12.302;2024-01-30T10:51:13;102321.81;;;7.03;79.42
83492;BME280;73661;56.120;12.302;2024-01-30T10:53:39;102312.53;;;7.27;79.54
83492;BME280;73661;56.120;12.302;2024-01-30T10:56:08;102308.53;;;6.97;80.38
83492;BME280;73661;56.120;12.302;2024-01-30T10:58:35;102312.69;;;7.50;78.78
83492;BME280;73661;56.120;12.302;2024-01-30T11:01:03;102306.78;;;7.73;78.61
83492;BME280;73661;56.120;12.302;2024-01-30T11:03:29;102312.56;;;8.48;75.86
83492;BME280;73661;56.120;12.302;2024-01-30T11:06:01;102304.06;;;7.51;78.66
83492;BME280;73661;56.120;12.302;2024-01-30T11:08:27;102299.69;;;7.30;79.45
83492;BME280;73661;56.120;12.302;2024-01-30T11:10:57;102289.59;;;8.38;76.62
83492;BME280;73661;56.120;12.302;2024-01-30T11:13:30;102296.84;;;8.45;76.16
83492;BME280;73661;56.120;12.302;2024-01-30T11:16:04;102301.75;;;9.27;73.63
83492;BME280;73661;56.120;12.302;2024-01-30T11:18:32;102301.19;;;9.36;73.36
83492;BME280;73661;56.120;12.302;2024-01-30T11:20:59;102292.41;;;8.65;74.56
83492;BME280;73661;56.120;12.302;2024-01-30T11:23:26;102292.56;;;8.90;74.84
83492;BME280;73661;56.120;12.302;2024-01-30T11:25:53;102286.84;;;9.00;74.10
83492;BME280;73661;56.120;12.302;2024-01-30T11:28:21;102272.16;;;9.25;73.80
83492;BME280;73661;56.120;12.302;2024-01-30T11:30:48;102269.97;;;9.13;72.97
83492;BME280;73661;56.120;12.302;2024-01-30T11:33:28;102263.06;;;8.91;73.15
83492;BME280;73661;56.120;12.302;2024-01-30T11:35:58;102247.47;;;9.39;72.52
83492;BME280;73661;56.120;12.302;2024-01-30T11:38:28;102241.09;;;8.19;77.38
83492;BME280;73661;56.120;12.302;2024-01-30T11:40:57;102234.19;;;8.85;75.57
83492;BME280;73661;56.120;12.302;2024-01-30T11:43:23;102241.25;;;9.12;74.83
83492;BME280;73661;56.120;12.302;2024-01-30T11:45:49;102238.38;;;9.77;72.51
83492;BME280;73661;56.120;12.302;2024-01-30T11:48:15;102236.84;;;9.59;72.79
83492;BME280;73661;56.120;12.302;2024-01-30T11:50:41;102252.47;;;10.35;70.51
83492;BME280;73661;56.120;12.302;2024-01-30T11:53:07;102247.00;;;10.54;70.30
83492;BME280;73661;56.120;12.302;2024-01-30T11:55:33;102235.44;;;10.46;70.19
83492;BME280;73661;56.120;12.302;2024-01-30T11:57:59;102234.22;;;10.09;71.62
83492;BME280;73661;56.120;12.302;2024-01-30T12:00:26;102244.69;;;10.63;70.64
83492;BME280;73661;56.120;12.302;2024-01-30T12:02:53;102259.94;;;10.78;69.10
83492;BME280;73661;56.120;12.302;2024-01-30T12:05:25;102255.47;;;11.04;68.62
83492;BME280;73661;56.120;12.302;2024-01-30T12:07:50;102239.72;;;11.33;67.86
83492;BME280;73661;56.120;12.302;2024-01-30T12:10:16;102236.25;;;10.72;69.62
83492;BME280;73661;56.120;12.302;2024-01-30T12:12:47;102231.22;;;11.10;69.10
83492;BME280;73661;56.120;12.302;2024-01-30T12:15:14;102220.25;;;11.22;67.80
83492;BME280;73661;56.120;12.302;2024-01-30T12:17:40;102222.97;;;11.58;67.00
83492;BME280;73661;56.120;12.302;2024-01-30T12:20:14;102214.81;;;11.45;67.32
83492;BME280;73661;56.120;12.302;2024-01-30T12:22:47;102210.88;;;11.63;66.62
83492;BME280;73661;56.120;12.302;2024-01-30T12:25:16;102220.00;;;11.44;66.88
83492;BME280;73661;56.120;12.302;2024-01-30T12:27:47;102212.72;;;11.32;67.43
83492;BME280;73661;56.120;12.302;2024-01-30T12:30:15;102214.47;;;11.66;66.62
83492;BME280;73661;56.120;12.302;2024-01-30T12:32:43;102209.19;;;11.00;68.17
83492;BME280;73661;56.120;12.302;2024-01-30T12:35:13;102203.44;;;10.82;69.36
83492;BME280;73661;56.120;12.302;2024-01-30T12:37:40;102210.00;;;11.62;66.97
83492;BME280;73661;56.120;12.302;2024-01-30T12:40:07;102214.13;;;11.84;65.80
83492;BME280;73661;56.120;12.302;2024-01-30T12:42:33;102215.97;;;12.24;64.13
83492;BME280;73661;56.120;12.302;2024-01-30T12:45:00;102218.84;;;11.99;64.76
83492;BME280;73661;56.120;12.302;2024-01-30T12:47:25;102222.97;;;12.25;64.11
83492;BME280;73661;56.120;12.302;2024-01-30T12:49:52;102211.19;;;11.40;65.67